Airfield :
LOGIN :

Register | Disclaimer

   EN    FR    IT 

 










Legend :    VFR   Marginal VFR   IFR   Intensive IFR   Very Intensive IFR
Visi :
Ceiling :
>= 8 km
>= 3000ft
5 to 8 km
1000 to 3000 ft
1500m to 5 km
500 to 1000 ft
800 to 1500m
200 to 500 ft
< 800m
< 200 ft
Symbols :   Thunderstorms  Fog  Heavy snow  Heavy precipitations  Wind > 20 kt
SIGMETs :     Misc.  Thunderstorms  Icing  Turbulence  Mountain Waves  Volcanic Ashes






- Airport Elevation : 479 ft
- IATA code : DOL


LFRG - Deauville

CURRENT METAR :
  • 280630Z AUTO 02007KT 9999 FEW044 SCT220 12/08 Q1025 NOSIG

EXPIRED METARs :
  • 280600Z AUTO 02007KT CAVOK 11/08 Q1025 NOSIG
  • 280530Z AUTO 03005KT CAVOK 10/08 Q1025 NOSIG
  • 280500Z AUTO 03005KT 360V060 CAVOK 10/08 Q1025
  • 280430Z AUTO 02007KT CAVOK 10/08 Q1025
  • 280400Z AUTO 01007KT CAVOK 10/08 Q1025

TAF TAF LFRG
Valid from the 28 at 06:00 until the 28 at 15:00 UTC


280500Z 2806/2815 01007KT CAVOK
ATIS : +33 2 31 65 65 36



MET'MAP, your aeronautical weather chart ! - Copyright ORBIFLY December 2007 - Disclaimer

ORBIFLY MET'MAP TEAM :

Programming & Development : Alexandra Zaïnal
Original concept : Baudouin d'Aumeries
Technical & hardware support : Manuel Goepfert
Assistance : Marc-Olivier Méhu

Contact : metmap@orbifly.com




SOURCES & CREDITS :

   NOAA